sensor_id;sensor_type;location;lat;lon;timestamp;P1;durP1;ratioP1;P2;durP2;ratioP2
4001;SDS011;2015;48.670;9.060;2023-04-30T00:00:40;8.60;;;7.93;;
4001;SDS011;2015;48.670;9.060;2023-04-30T00:03:12;10.60;;;8.40;;
4001;SDS011;2015;48.670;9.060;2023-04-30T00:05:44;10.13;;;9.13;;
4001;SDS011;2015;48.670;9.060;2023-04-30T00:08:15;10.63;;;8.60;;
4001;SDS011;2015;48.670;9.060;2023-04-30T00:10:47;8.43;;;7.67;;
4001;SDS011;2015;48.670;9.060;2023-04-30T00:13:19;9.90;;;7.90;;
4001;SDS011;2015;48.670;9.060;2023-04-30T00:15:51;8.77;;;7.87;;
4001;SDS011;2015;48.670;9.060;2023-04-30T00:18:23;10.60;;;9.50;;
4001;SDS011;2015;48.670;9.060;2023-04-30T00:20:54;10.90;;;9.40;;
4001;SDS011;2015;48.670;9.060;2023-04-30T00:23:26;11.17;;;8.10;;
4001;SDS011;2015;48.670;9.060;2023-04-30T00:25:58;11.37;;;8.63;;
4001;SDS011;2015;48.670;9.060;2023-04-30T00:28:30;7.97;;;7.27;;
4001;SDS011;2015;48.670;9.060;2023-04-30T00:31:01;9.40;;;8.60;;
4001;SDS011;2015;48.670;9.060;2023-04-30T00:33:36;9.33;;;7.87;;
4001;SDS011;2015;48.670;9.060;2023-04-30T00:36:08;10.73;;;9.67;;
4001;SDS011;2015;48.670;9.060;2023-04-30T00:38:40;9.73;;;7.80;;
4001;SDS011;2015;48.670;9.060;2023-04-30T00:41:12;10.20;;;7.43;;
4001;SDS011;2015;48.670;9.060;2023-04-30T00:43:44;7.40;;;6.70;;
4001;SDS011;2015;48.670;9.060;2023-04-30T00:46:17;8.77;;;7.50;;
4001;SDS011;2015;48.670;9.060;2023-04-30T00:48:49;8.70;;;7.80;;
4001;SDS011;2015;48.670;9.060;2023-04-30T00:51:20;8.70;;;7.90;;
4001;SDS011;2015;48.670;9.060;2023-04-30T00:53:53;9.33;;;8.37;;
4001;SDS011;2015;48.670;9.060;2023-04-30T00:56:25;8.87;;;8.10;;
4001;SDS011;2015;48.670;9.060;2023-04-30T00:58:57;9.20;;;8.27;;
4001;SDS011;2015;48.670;9.060;2023-04-30T01:01:29;8.13;;;7.53;;
4001;SDS011;2015;48.670;9.060;2023-04-30T01:04:02;8.60;;;7.80;;
4001;SDS011;2015;48.670;9.060;2023-04-30T01:06:34;10.20;;;9.30;;
4001;SDS011;2015;48.670;9.060;2023-04-30T01:09:06;10.60;;;9.50;;
4001;SDS011;2015;48.670;9.060;2023-04-30T01:16:59;8.70;;;7.90;;
4001;SDS011;2015;48.670;9.060;2023-04-30T01:19:41;10.80;;;9.07;;
4001;SDS011;2015;48.670;9.060;2023-04-30T01:25:00;9.80;;;8.77;;
4001;SDS011;2015;48.670;9.060;2023-04-30T01:28:08;10.47;;;9.37;;
4001;SDS011;2015;48.670;9.060;2023-04-30T01:30:48;12.63;;;8.97;;
4001;SDS011;2015;48.670;9.060;2023-04-30T01:33:20;14.67;;;9.37;;
4001;SDS011;2015;48.670;9.060;2023-04-30T01:41:43;13.13;;;8.90;;
4001;SDS011;2015;48.670;9.060;2023-04-30T01:44:31;10.90;;;8.73;;
4001;SDS011;2015;48.670;9.060;2023-04-30T01:50:33;10.67;;;9.57;;
4001;SDS011;2015;48.670;9.060;2023-04-30T01:53:15;9.70;;;8.63;;
4001;SDS011;2015;48.670;9.060;2023-04-30T01:55:56;10.20;;;9.20;;
4001;SDS011;2015;48.670;9.060;2023-04-30T01:58:33;9.43;;;8.53;;
4001;SDS011;2015;48.670;9.060;2023-04-30T02:01:06;10.77;;;7.90;;
4001;SDS011;2015;48.670;9.060;2023-04-30T02:03:38;10.30;;;9.00;;
4001;SDS011;2015;48.670;9.060;2023-04-30T02:06:10;10.30;;;9.17;;
4001;SDS011;2015;48.670;9.060;2023-04-30T02:08:41;10.70;;;9.17;;
4001;SDS011;2015;48.670;9.060;2023-04-30T02:11:13;10.70;;;9.00;;
4001;SDS011;2015;48.670;9.060;2023-04-30T02:13:45;11.30;;;9.80;;
4001;SDS011;2015;48.670;9.060;2023-04-30T02:16:17;9.97;;;8.57;;
4001;SDS011;2015;48.670;9.060;2023-04-30T02:18:49;12.60;;;10.50;;
4001;SDS011;2015;48.670;9.060;2023-04-30T02:21:21;14.07;;;10.10;;
4001;SDS011;2015;48.670;9.060;2023-04-30T02:23:52;13.43;;;9.37;;
4001;SDS011;2015;48.670;9.060;2023-04-30T02:26:24;11.83;;;9.93;;
4001;SDS011;2015;48.670;9.060;2023-04-30T02:28:56;11.27;;;10.00;;
4001;SDS011;2015;48.670;9.060;2023-04-30T02:31:28;14.40;;;10.97;;
4001;SDS011;2015;48.670;9.060;2023-04-30T02:34:00;11.27;;;9.97;;
4001;SDS011;2015;48.670;9.060;2023-04-30T02:36:32;12.60;;;10.50;;
4001;SDS011;2015;48.670;9.060;2023-04-30T02:39:06;12.43;;;11.03;;
4001;SDS011;2015;48.670;9.060;2023-04-30T02:41:39;13.37;;;10.80;;
4001;SDS011;2015;48.670;9.060;2023-04-30T02:44:11;14.10;;;10.67;;
4001;SDS011;2015;48.670;9.060;2023-04-30T02:46:42;15.03;;;12.13;;
4001;SDS011;2015;48.670;9.060;2023-04-30T02:49:14;16.30;;;12.33;;
4001;SDS011;2015;48.670;9.060;2023-04-30T02:51:46;16.93;;;12.53;;
4001;SDS011;2015;48.670;9.060;2023-04-30T02:54:18;13.73;;;11.20;;
4001;SDS011;2015;48.670;9.060;2023-04-30T02:56:50;16.93;;;13.20;;
4001;SDS011;2015;48.670;9.060;2023-04-30T02:59:21;14.10;;;11.13;;
4001;SDS011;2015;48.670;9.060;2023-04-30T03:01:53;17.17;;;11.73;;
4001;SDS011;2015;48.670;9.060;2023-04-30T03:04:25;14.43;;;11.90;;
4001;SDS011;2015;48.670;9.060;2023-04-30T03:06:56;18.20;;;11.33;;
4001;SDS011;2015;48.670;9.060;2023-04-30T03:09:30;13.97;;;12.00;;
4001;SDS011;2015;48.670;9.060;2023-04-30T03:12:02;18.77;;;14.30;;
4001;SDS011;2015;48.670;9.060;2023-04-30T03:14:34;17.27;;;12.60;;
4001;SDS011;2015;48.670;9.060;2023-04-30T03:17:06;15.37;;;13.07;;
4001;SDS011;2015;48.670;9.060;2023-04-30T03:19:38;15.00;;;11.83;;
4001;SDS011;2015;48.670;9.060;2023-04-30T03:22:09;17.00;;;12.20;;
4001;SDS011;2015;48.670;9.060;2023-04-30T03:24:41;18.50;;;12.43;;
4001;SDS011;2015;48.670;9.060;2023-04-30T03:27:13;13.20;;;11.77;;
4001;SDS011;2015;48.670;9.060;2023-04-30T03:29:47;17.30;;;12.80;;
4001;SDS011;2015;48.670;9.060;2023-04-30T03:32:19;18.73;;;12.43;;
4001;SDS011;2015;48.670;9.060;2023-04-30T03:34:51;15.50;;;13.60;;
4001;SDS011;2015;48.670;9.060;2023-04-30T03:37:22;13.50;;;11.37;;
4001;SDS011;2015;48.670;9.060;2023-04-30T03:39:54;19.33;;;14.10;;
4001;SDS011;2015;48.670;9.060;2023-04-30T03:42:26;15.02;;;12.55;;
4001;SDS011;2015;48.670;9.060;2023-04-30T03:44:58;15.60;;;11.87;;
4001;SDS011;2015;48.670;9.060;2023-04-30T03:47:30;15.60;;;12.77;;
4001;SDS011;2015;48.670;9.060;2023-04-30T03:50:02;17.80;;;13.23;;
4001;SDS011;2015;48.670;9.060;2023-04-30T03:52:34;18.23;;;13.47;;
4001;SDS011;2015;48.670;9.060;2023-04-30T03:55:07;17.43;;;13.30;;
4001;SDS011;2015;48.670;9.060;2023-04-30T03:57:39;19.13;;;13.83;;
4001;SDS011;2015;48.670;9.060;2023-04-30T04:00:11;14.47;;;12.07;;
4001;SDS011;2015;48.670;9.060;2023-04-30T04:02:45;15.63;;;12.67;;
4001;SDS011;2015;48.670;9.060;2023-04-30T04:05:18;18.90;;;13.10;;
4001;SDS011;2015;48.670;9.060;2023-04-30T04:07:49;20.97;;;15.20;;
4001;SDS011;2015;48.670;9.060;2023-04-30T04:10:21;16.93;;;12.50;;
4001;SDS011;2015;48.670;9.060;2023-04-30T04:12:53;15.63;;;13.13;;
4001;SDS011;2015;48.670;9.060;2023-04-30T04:15:25;18.93;;;13.60;;
4001;SDS011;2015;48.670;9.060;2023-04-30T04:17:57;19.33;;;13.10;;
4001;SDS011;2015;48.670;9.060;2023-04-30T04:20:29;16.33;;;13.07;;
4001;SDS011;2015;48.670;9.060;2023-04-30T04:23:01;16.73;;;14.03;;
4001;SDS011;2015;48.670;9.060;2023-04-30T04:25:32;14.80;;;12.33;;
4001;SDS011;2015;48.670;9.060;2023-04-30T04:28:05;13.67;;;11.80;;
4001;SDS011;2015;48.670;9.060;2023-04-30T04:30:37;16.57;;;12.60;;
4001;SDS011;2015;48.670;9.060;2023-04-30T04:33:10;17.90;;;13.10;;
4001;SDS011;2015;48.670;9.060;2023-04-30T04:35:41;14.33;;;12.20;;
4001;SDS011;2015;48.670;9.060;2023-04-30T04:38:13;18.90;;;13.98;;
4001;SDS011;2015;48.670;9.060;2023-04-30T04:40:52;14.60;;;11.90;;
4001;SDS011;2015;48.670;9.060;2023-04-30T04:43:24;17.07;;;13.00;;
4001;SDS011;2015;48.670;9.060;2023-04-30T04:45:56;18.40;;;14.30;;
4001;SDS011;2015;48.670;9.060;2023-04-30T04:48:28;19.20;;;13.10;;
4001;SDS011;2015;48.670;9.060;2023-04-30T04:50:59;16.17;;;11.10;;
4001;SDS011;2015;48.670;9.060;2023-04-30T04:53:31;15.23;;;13.63;;
4001;SDS011;2015;48.670;9.060;2023-04-30T04:56:05;15.43;;;12.40;;
4001;SDS011;2015;48.670;9.060;2023-04-30T04:58:37;14.73;;;12.40;;
4001;SDS011;2015;48.670;9.060;2023-04-30T05:01:09;16.63;;;13.13;;
4001;SDS011;2015;48.670;9.060;2023-04-30T05:03:41;13.60;;;12.10;;
4001;SDS011;2015;48.670;9.060;2023-04-30T05:06:13;16.13;;;12.77;;
4001;SDS011;2015;48.670;9.060;2023-04-30T05:08:45;16.37;;;13.00;;
4001;SDS011;2015;48.670;9.060;2023-04-30T05:11:17;18.63;;;13.47;;
4001;SDS011;2015;48.670;9.060;2023-04-30T05:13:48;19.70;;;14.27;;
4001;SDS011;2015;48.670;9.060;2023-04-30T05:16:20;15.77;;;11.70;;
4001;SDS011;2015;48.670;9.060;2023-04-30T05:18:52;16.73;;;12.97;;
4001;SDS011;2015;48.670;9.060;2023-04-30T05:21:24;14.80;;;11.67;;
4001;SDS011;2015;48.670;9.060;2023-04-30T05:23:59;15.97;;;12.77;;
4001;SDS011;2015;48.670;9.060;2023-04-30T05:26:31;15.57;;;12.87;;
4001;SDS011;2015;48.670;9.060;2023-04-30T05:29:03;16.87;;;12.50;;
4001;SDS011;2015;48.670;9.060;2023-04-30T05:31:34;13.73;;;11.57;;
4001;SDS011;2015;48.670;9.060;2023-04-30T05:34:06;17.37;;;14.17;;
4001;SDS011;2015;48.670;9.060;2023-04-30T05:36:38;20.80;;;15.07;;
4001;SDS011;2015;48.670;9.060;2023-04-30T05:39:11;13.73;;;12.10;;
4001;SDS011;2015;48.670;9.060;2023-04-30T05:41:43;16.10;;;13.00;;
4001;SDS011;2015;48.670;9.060;2023-04-30T05:44:15;13.57;;;12.20;;
4001;SDS011;2015;48.670;9.060;2023-04-30T05:46:46;14.53;;;12.53;;
4001;SDS011;2015;48.670;9.060;2023-04-30T05:49:18;13.47;;;11.50;;
4001;SDS011;2015;48.670;9.060;2023-04-30T05:51:50;13.57;;;12.20;;
4001;SDS011;2015;48.670;9.060;2023-04-30T05:54:22;14.67;;;13.20;;
4001;SDS011;2015;48.670;9.060;2023-04-30T05:56:53;13.37;;;11.83;;
4001;SDS011;2015;48.670;9.060;2023-04-30T05:59:25;17.70;;;11.80;;
4001;SDS011;2015;48.670;9.060;2023-04-30T06:01:57;15.83;;;13.17;;
4001;SDS011;2015;48.670;9.060;2023-04-30T06:04:29;14.07;;;12.20;;
4001;SDS011;2015;48.670;9.060;2023-04-30T06:07:01;17.30;;;13.27;;
4001;SDS011;2015;48.670;9.060;2023-04-30T06:09:33;13.77;;;12.37;;
4001;SDS011;2015;48.670;9.060;2023-04-30T06:12:05;14.67;;;12.00;;
4001;SDS011;2015;48.670;9.060;2023-04-30T06:14:37;14.93;;;13.40;;
4001;SDS011;2015;48.670;9.060;2023-04-30T06:17:10;15.30;;;13.57;;
4001;SDS011;2015;48.670;9.060;2023-04-30T06:19:42;17.13;;;12.27;;
4001;SDS011;2015;48.670;9.060;2023-04-30T06:22:14;14.60;;;12.33;;
4001;SDS011;2015;48.670;9.060;2023-04-30T06:24:45;15.57;;;12.20;;
4001;SDS011;2015;48.670;9.060;2023-04-30T06:27:17;14.47;;;12.97;;
4001;SDS011;2015;48.670;9.060;2023-04-30T06:29:49;14.53;;;11.70;;
4001;SDS011;2015;48.670;9.060;2023-04-30T06:32:21;17.10;;;13.00;;
4001;SDS011;2015;48.670;9.060;2023-04-30T06:34:53;16.27;;;12.30;;
4001;SDS011;2015;48.670;9.060;2023-04-30T06:37:25;15.60;;;13.60;;
4001;SDS011;2015;48.670;9.060;2023-04-30T06:39:57;14.87;;;12.40;;
4001;SDS011;2015;48.670;9.060;2023-04-30T06:42:28;16.30;;;13.97;;
4001;SDS011;2015;48.670;9.060;2023-04-30T06:45:04;13.67;;;12.27;;
4001;SDS011;2015;48.670;9.060;2023-04-30T06:47:39;15.23;;;13.53;;
4001;SDS011;2015;48.670;9.060;2023-04-30T06:50:13;15.63;;;12.70;;
4001;SDS011;2015;48.670;9.060;2023-04-30T06:52:46;13.63;;;12.20;;
4001;SDS011;2015;48.670;9.060;2023-04-30T06:55:18;14.07;;;11.93;;
4001;SDS011;2015;48.670;9.060;2023-04-30T06:57:51;13.10;;;11.70;;
4001;SDS011;2015;48.670;9.060;2023-04-30T07:00:22;16.00;;;12.40;;
4001;SDS011;2015;48.670;9.060;2023-04-30T07:02:54;14.00;;;12.43;;
4001;SDS011;2015;48.670;9.060;2023-04-30T07:05:27;15.57;;;12.13;;
4001;SDS011;2015;48.670;9.060;2023-04-30T07:08:00;13.83;;;12.40;;
4001;SDS011;2015;48.670;9.060;2023-04-30T07:10:33;15.70;;;13.07;;
4001;SDS011;2015;48.670;9.060;2023-04-30T07:13:05;14.37;;;12.87;;
4001;SDS011;2015;48.670;9.060;2023-04-30T07:15:38;14.30;;;11.30;;
4001;SDS011;2015;48.670;9.060;2023-04-30T07:18:10;13.23;;;11.83;;
4001;SDS011;2015;48.670;9.060;2023-04-30T07:20:42;14.60;;;11.87;;
4001;SDS011;2015;48.670;9.060;2023-04-30T07:23:14;12.83;;;11.53;;
4001;SDS011;2015;48.670;9.060;2023-04-30T07:25:46;14.07;;;12.03;;
4001;SDS011;2015;48.670;9.060;2023-04-30T07:28:17;13.15;;;11.75;;
4001;SDS011;2015;48.670;9.060;2023-04-30T07:30:49;13.03;;;11.67;;
4001;SDS011;2015;48.670;9.060;2023-04-30T07:33:21;13.40;;;12.20;;
4001;SDS011;2015;48.670;9.060;2023-04-30T07:35:53;14.53;;;11.83;;
4001;SDS011;2015;48.670;9.060;2023-04-30T07:38:26;13.10;;;11.90;;
4001;SDS011;2015;48.670;9.060;2023-04-30T07:40:59;12.57;;;10.70;;
4001;SDS011;2015;48.670;9.060;2023-04-30T07:43:31;13.10;;;11.77;;
4001;SDS011;2015;48.670;9.060;2023-04-30T07:46:03;12.33;;;10.97;;
4001;SDS011;2015;48.670;9.060;2023-04-30T07:48:35;11.53;;;10.47;;
4001;SDS011;2015;48.670;9.060;2023-04-30T07:51:07;11.10;;;10.03;;
4001;SDS011;2015;48.670;9.060;2023-04-30T07:53:39;12.33;;;11.23;;
4001;SDS011;2015;48.670;9.060;2023-04-30T07:56:11;12.13;;;11.03;;
4001;SDS011;2015;48.670;9.060;2023-04-30T07:58:43;10.13;;;9.20;;
4001;SDS011;2015;48.670;9.060;2023-04-30T08:01:15;10.20;;;9.30;;
4001;SDS011;2015;48.670;9.060;2023-04-30T08:03:47;10.63;;;9.60;;
4001;SDS011;2015;48.670;9.060;2023-04-30T08:06:18;11.33;;;10.33;;
4001;SDS011;2015;48.670;9.060;2023-04-30T08:08:50;8.83;;;7.93;;
4001;SDS011;2015;48.670;9.060;2023-04-30T08:11:22;12.23;;;11.20;;
4001;SDS011;2015;48.670;9.060;2023-04-30T08:13:54;12.43;;;10.73;;
4001;SDS011;2015;48.670;9.060;2023-04-30T08:16:26;10.43;;;9.20;;
4001;SDS011;2015;48.670;9.060;2023-04-30T08:18:58;10.70;;;9.60;;
4001;SDS011;2015;48.670;9.060;2023-04-30T08:21:30;9.00;;;8.30;;
4001;SDS011;2015;48.670;9.060;2023-04-30T08:24:02;10.18;;;9.35;;
4001;SDS011;2015;48.670;9.060;2023-04-30T08:26:34;10.80;;;9.70;;
4001;SDS011;2015;48.670;9.060;2023-04-30T08:29:06;9.80;;;9.00;;
4001;SDS011;2015;48.670;9.060;2023-04-30T08:31:38;9.60;;;8.70;;
4001;SDS011;2015;48.670;9.060;2023-04-30T08:34:10;9.57;;;8.70;;
4001;SDS011;2015;48.670;9.060;2023-04-30T08:36:42;10.80;;;9.53;;
4001;SDS011;2015;48.670;9.060;2023-04-30T08:39:13;10.23;;;9.13;;
4001;SDS011;2015;48.670;9.060;2023-04-30T08:41:45;9.13;;;8.20;;
4001;SDS011;2015;48.670;9.060;2023-04-30T08:44:26;9.17;;;8.20;;
4001;SDS011;2015;48.670;9.060;2023-04-30T08:46:58;9.10;;;8.30;;
4001;SDS011;2015;48.670;9.060;2023-04-30T08:49:32;8.37;;;7.77;;
4001;SDS011;2015;48.670;9.060;2023-04-30T08:52:06;7.17;;;6.57;;
4001;SDS011;2015;48.670;9.060;2023-04-30T08:54:38;7.40;;;6.80;;
4001;SDS011;2015;48.670;9.060;2023-04-30T08:57:10;9.07;;;8.37;;
4001;SDS011;2015;48.670;9.060;2023-04-30T08:59:45;8.47;;;6.90;;
4001;SDS011;2015;48.670;9.060;2023-04-30T09:02:19;8.60;;;7.70;;
4001;SDS011;2015;48.670;9.060;2023-04-30T09:04:51;8.20;;;7.50;;
4001;SDS011;2015;48.670;9.060;2023-04-30T09:07:23;8.03;;;7.33;;
4001;SDS011;2015;48.670;9.060;2023-04-30T09:09:58;7.13;;;6.63;;
4001;SDS011;2015;48.670;9.060;2023-04-30T09:12:30;7.97;;;6.70;;
4001;SDS011;2015;48.670;9.060;2023-04-30T09:15:03;6.47;;;6.03;;
4001;SDS011;2015;48.670;9.060;2023-04-30T09:17:36;6.73;;;6.33;;
4001;SDS011;2015;48.670;9.060;2023-04-30T09:20:09;6.55;;;6.15;;
4001;SDS011;2015;48.670;9.060;2023-04-30T09:22:42;7.00;;;6.40;;
4001;SDS011;2015;48.670;9.060;2023-04-30T09:25:14;8.57;;;6.90;;
4001;SDS011;2015;48.670;9.060;2023-04-30T09:27:46;8.90;;;8.10;;
4001;SDS011;2015;48.670;9.060;2023-04-30T09:30:30;8.83;;;8.23;;
4001;SDS011;2015;48.670;9.060;2023-04-30T09:33:03;7.50;;;6.90;;
4001;SDS011;2015;48.670;9.060;2023-04-30T09:35:36;8.50;;;7.90;;
4001;SDS011;2015;48.670;9.060;2023-04-30T09:38:28;6.83;;;6.33;;
4001;SDS011;2015;48.670;9.060;2023-04-30T09:41:00;8.60;;;7.90;;
4001;SDS011;2015;48.670;9.060;2023-04-30T09:43:32;7.97;;;7.27;;
4001;SDS011;2015;48.670;9.060;2023-04-30T09:46:04;7.23;;;6.73;;
4001;SDS011;2015;48.670;9.060;2023-04-30T09:48:37;7.27;;;6.80;;
4001;SDS011;2015;48.670;9.060;2023-04-30T09:51:12;7.30;;;6.77;;
4001;SDS011;2015;48.670;9.060;2023-04-30T09:53:44;7.10;;;6.63;;
4001;SDS011;2015;48.670;9.060;2023-04-30T09:56:18;7.37;;;6.77;;
4001;SDS011;2015;48.670;9.060;2023-04-30T09:58:53;6.63;;;6.13;;
4001;SDS011;2015;48.670;9.060;2023-04-30T10:01:26;7.00;;;6.50;;
4001;SDS011;2015;48.670;9.060;2023-04-30T10:03:59;5.97;;;5.57;;
4001;SDS011;2015;48.670;9.060;2023-04-30T10:06:31;7.50;;;6.77;;
4001;SDS011;2015;48.670;9.060;2023-04-30T10:09:05;8.23;;;7.60;;
4001;SDS011;2015;48.670;9.060;2023-04-30T10:11:39;7.17;;;6.40;;
4001;SDS011;2015;48.670;9.060;2023-04-30T10:14:13;8.00;;;7.30;;
4001;SDS011;2015;48.670;9.060;2023-04-30T10:16:50;6.93;;;6.38;;
4001;SDS011;2015;48.670;9.060;2023-04-30T10:19:32;7.83;;;6.67;;
4001;SDS011;2015;48.670;9.060;2023-04-30T10:22:06;8.30;;;7.10;;
4001;SDS011;2015;48.670;9.060;2023-04-30T10:24:40;6.50;;;6.10;;
4001;SDS011;2015;48.670;9.060;2023-04-30T10:27:13;6.67;;;6.27;;
4001;SDS011;2015;48.670;9.060;2023-04-30T10:29:45;6.60;;;6.10;;
4001;SDS011;2015;48.670;9.060;2023-04-30T10:32:17;6.70;;;6.20;;
4001;SDS011;2015;48.670;9.060;2023-04-30T10:34:58;7.40;;;6.80;;
4001;SDS011;2015;48.670;9.060;2023-04-30T10:40:26;6.47;;;6.00;;
4001;SDS011;2015;48.670;9.060;2023-04-30T10:42:58;7.97;;;7.20;;
4001;SDS011;2015;48.670;9.060;2023-04-30T10:45:36;6.57;;;6.00;;
4001;SDS011;2015;48.670;9.060;2023-04-30T10:48:11;7.03;;;6.53;;
4001;SDS011;2015;48.670;9.060;2023-04-30T10:50:45;7.87;;;7.17;;
4001;SDS011;2015;48.670;9.060;2023-04-30T10:53:20;6.50;;;6.00;;
4001;SDS011;2015;48.670;9.060;2023-04-30T10:55:53;6.60;;;6.00;;
4001;SDS011;2015;48.670;9.060;2023-04-30T10:58:37;7.37;;;6.77;;
4001;SDS011;2015;48.670;9.060;2023-04-30T11:01:11;6.00;;;5.50;;
4001;SDS011;2015;48.670;9.060;2023-04-30T11:04:03;7.50;;;6.23;;
4001;SDS011;2015;48.670;9.060;2023-04-30T11:09:34;6.00;;;5.60;;
4001;SDS011;2015;48.670;9.060;2023-04-30T11:12:18;5.72;;;5.43;;
4001;SDS011;2015;48.670;9.060;2023-04-30T11:15:16;6.30;;;5.80;;
4001;SDS011;2015;48.670;9.060;2023-04-30T11:17:50;5.47;;;4.93;;
4001;SDS011;2015;48.670;9.060;2023-04-30T11:20:26;6.00;;;5.60;;
4001;SDS011;2015;48.670;9.060;2023-04-30T11:23:11;5.53;;;5.13;;
4001;SDS011;2015;48.670;9.060;2023-04-30T11:26:02;5.60;;;5.23;;
4001;SDS011;2015;48.670;9.060;2023-04-30T11:28:35;5.27;;;4.97;;
4001;SDS011;2015;48.670;9.060;2023-04-30T11:31:08;5.17;;;4.83;;
4001;SDS011;2015;48.670;9.060;2023-04-30T11:33:40;4.77;;;4.57;;
4001;SDS011;2015;48.670;9.060;2023-04-30T11:36:11;5.57;;;5.17;;
4001;SDS011;2015;48.670;9.060;2023-04-30T11:38:44;5.50;;;5.20;;
4001;SDS011;2015;48.670;9.060;2023-04-30T11:41:16;5.53;;;5.13;;
4001;SDS011;2015;48.670;9.060;2023-04-30T11:43:51;5.73;;;5.20;;
4001;SDS011;2015;48.670;9.060;2023-04-30T11:46:23;4.20;;;4.00;;
4001;SDS011;2015;48.670;9.060;2023-04-30T11:48:55;4.70;;;4.40;;
4001;SDS011;2015;48.670;9.060;2023-04-30T11:51:27;6.07;;;5.57;;
4001;SDS011;2015;48.670;9.060;2023-04-30T11:53:59;6.10;;;5.70;;
4001;SDS011;2015;48.670;9.060;2023-04-30T11:56:32;6.00;;;5.60;;
4001;SDS011;2015;48.670;9.060;2023-04-30T11:59:11;4.50;;;4.30;;
4001;SDS011;2015;48.670;9.060;2023-04-30T12:01:43;5.23;;;4.93;;
4001;SDS011;2015;48.670;9.060;2023-04-30T12:04:15;5.50;;;5.10;;
4001;SDS011;2015;48.670;9.060;2023-04-30T12:06:47;6.23;;;5.83;;
4001;SDS011;2015;48.670;9.060;2023-04-30T12:09:19;5.22;;;4.93;;
4001;SDS011;2015;48.670;9.060;2023-04-30T12:11:51;5.50;;;5.00;;
4001;SDS011;2015;48.670;9.060;2023-04-30T12:14:23;6.13;;;5.73;;
4001;SDS011;2015;48.670;9.060;2023-04-30T12:16:55;6.00;;;5.40;;
4001;SDS011;2015;48.670;9.060;2023-04-30T12:19:27;5.80;;;5.40;;
4001;SDS011;2015;48.670;9.060;2023-04-30T12:21:59;5.83;;;5.53;;
4001;SDS011;2015;48.670;9.060;2023-04-30T12:24:30;5.90;;;5.30;;
4001;SDS011;2015;48.670;9.060;2023-04-30T12:27:02;6.43;;;5.97;;
4001;SDS011;2015;48.670;9.060;2023-04-30T12:29:34;6.33;;;5.93;;
4001;SDS011;2015;48.670;9.060;2023-04-30T12:32:16;5.77;;;5.47;;
4001;SDS011;2015;48.670;9.060;2023-04-30T12:34:49;5.37;;;5.07;;
4001;SDS011;2015;48.670;9.060;2023-04-30T12:37:21;5.47;;;5.17;;
4001;SDS011;2015;48.670;9.060;2023-04-30T12:39:54;5.10;;;4.80;;
4001;SDS011;2015;48.670;9.060;2023-04-30T12:42:32;5.03;;;4.73;;
4001;SDS011;2015;48.670;9.060;2023-04-30T12:45:06;6.50;;;5.90;;
4001;SDS011;2015;48.670;9.060;2023-04-30T12:47:39;5.60;;;5.30;;
4001;SDS011;2015;48.670;9.060;2023-04-30T12:50:12;5.50;;;5.00;;
4001;SDS011;2015;48.670;9.060;2023-04-30T12:52:43;5.67;;;5.30;;
4001;SDS011;2015;48.670;9.060;2023-04-30T12:55:17;5.33;;;5.03;;
4001;SDS011;2015;48.670;9.060;2023-04-30T12:58:06;6.00;;;5.50;;
4001;SDS011;2015;48.670;9.060;2023-04-30T13:03:19;5.50;;;4.43;;
4001;SDS011;2015;48.670;9.060;2023-04-30T13:05:52;5.40;;;5.00;;
4001;SDS011;2015;48.670;9.060;2023-04-30T13:08:24;5.83;;;5.43;;
4001;SDS011;2015;48.670;9.060;2023-04-30T13:10:56;6.53;;;6.03;;
4001;SDS011;2015;48.670;9.060;2023-04-30T13:13:28;5.40;;;5.10;;
4001;SDS011;2015;48.670;9.060;2023-04-30T13:15:59;5.60;;;5.23;;
4001;SDS011;2015;48.670;9.060;2023-04-30T13:18:31;5.83;;;5.43;;
4001;SDS011;2015;48.670;9.060;2023-04-30T13:21:03;6.50;;;6.00;;
4001;SDS011;2015;48.670;9.060;2023-04-30T13:23:35;6.23;;;5.93;;
4001;SDS011;2015;48.670;9.060;2023-04-30T13:26:22;7.00;;;6.50;;
4001;SDS011;2015;48.670;9.060;2023-04-30T13:28:54;6.00;;;5.60;;
4001;SDS011;2015;48.670;9.060;2023-04-30T13:31:26;6.00;;;5.60;;
4001;SDS011;2015;48.670;9.060;2023-04-30T13:33:58;5.93;;;5.63;;
4001;SDS011;2015;48.670;9.060;2023-04-30T13:36:29;6.33;;;5.83;;
4001;SDS011;2015;48.670;9.060;2023-04-30T13:39:01;5.83;;;5.43;;
4001;SDS011;2015;48.670;9.060;2023-04-30T13:41:34;5.80;;;5.40;;
4001;SDS011;2015;48.670;9.060;2023-04-30T13:44:06;5.80;;;5.33;;
4001;SDS011;2015;48.670;9.060;2023-04-30T13:46:38;6.17;;;5.57;;
4001;SDS011;2015;48.670;9.060;2023-04-30T13:49:09;6.67;;;6.07;;
4001;SDS011;2015;48.670;9.060;2023-04-30T13:51:41;6.67;;;6.10;;
4001;SDS011;2015;48.670;9.060;2023-04-30T13:54:13;6.27;;;5.87;;
4001;SDS011;2015;48.670;9.060;2023-04-30T13:56:45;5.67;;;5.27;;
4001;SDS011;2015;48.670;9.060;2023-04-30T13:59:17;6.17;;;5.67;;
4001;SDS011;2015;48.670;9.060;2023-04-30T14:01:49;6.25;;;5.85;;
4001;SDS011;2015;48.670;9.060;2023-04-30T14:04:21;6.20;;;5.77;;
4001;SDS011;2015;48.670;9.060;2023-04-30T14:06:52;5.57;;;5.17;;
4001;SDS011;2015;48.670;9.060;2023-04-30T14:09:26;6.60;;;6.10;;
4001;SDS011;2015;48.670;9.060;2023-04-30T14:11:59;5.97;;;5.67;;
4001;SDS011;2015;48.670;9.060;2023-04-30T14:14:31;6.43;;;5.93;;
4001;SDS011;2015;48.670;9.060;2023-04-30T14:17:02;5.53;;;5.23;;
4001;SDS011;2015;48.670;9.060;2023-04-30T14:19:35;6.20;;;5.70;;
4001;SDS011;2015;48.670;9.060;2023-04-30T14:22:06;6.10;;;5.40;;
4001;SDS011;2015;48.670;9.060;2023-04-30T14:24:38;5.13;;;4.83;;
4001;SDS011;2015;48.670;9.060;2023-04-30T14:27:10;6.40;;;6.00;;
4001;SDS011;2015;48.670;9.060;2023-04-30T14:29:42;5.47;;;5.17;;
4001;SDS011;2015;48.670;9.060;2023-04-30T14:32:14;6.13;;;5.63;;
4001;SDS011;2015;48.670;9.060;2023-04-30T14:34:46;5.40;;;5.00;;
4001;SDS011;2015;48.670;9.060;2023-04-30T14:37:17;4.83;;;4.53;;
4001;SDS011;2015;48.670;9.060;2023-04-30T14:39:49;5.10;;;4.70;;
4001;SDS011;2015;48.670;9.060;2023-04-30T14:42:21;5.93;;;5.53;;
4001;SDS011;2015;48.670;9.060;2023-04-30T14:44:53;6.60;;;6.00;;
4001;SDS011;2015;48.670;9.060;2023-04-30T14:47:25;5.73;;;5.33;;
4001;SDS011;2015;48.670;9.060;2023-04-30T14:49:57;6.20;;;5.70;;
4001;SDS011;2015;48.670;9.060;2023-04-30T14:52:32;5.13;;;4.63;;
4001;SDS011;2015;48.670;9.060;2023-04-30T14:55:04;5.87;;;5.47;;
4001;SDS011;2015;48.670;9.060;2023-04-30T14:57:36;5.60;;;5.20;;
4001;SDS011;2015;48.670;9.060;2023-04-30T15:00:08;4.87;;;4.47;;
4001;SDS011;2015;48.670;9.060;2023-04-30T15:02:41;6.43;;;5.87;;
4001;SDS011;2015;48.670;9.060;2023-04-30T15:05:13;5.70;;;5.30;;
4001;SDS011;2015;48.670;9.060;2023-04-30T15:07:44;5.30;;;5.00;;
4001;SDS011;2015;48.670;9.060;2023-04-30T15:10:16;5.50;;;5.20;;
4001;SDS011;2015;48.670;9.060;2023-04-30T15:12:48;6.27;;;5.87;;
4001;SDS011;2015;48.670;9.060;2023-04-30T15:15:20;5.13;;;4.73;;
4001;SDS011;2015;48.670;9.060;2023-04-30T15:17:58;5.40;;;5.00;;
4001;SDS011;2015;48.670;9.060;2023-04-30T15:20:31;5.60;;;5.10;;
4001;SDS011;2015;48.670;9.060;2023-04-30T15:23:03;6.40;;;6.00;;
4001;SDS011;2015;48.670;9.060;2023-04-30T15:25:35;5.40;;;5.10;;
4001;SDS011;2015;48.670;9.060;2023-04-30T15:28:07;5.97;;;5.47;;
4001;SDS011;2015;48.670;9.060;2023-04-30T15:30:40;5.45;;;5.15;;
4001;SDS011;2015;48.670;9.060;2023-04-30T15:33:11;5.20;;;4.90;;
4001;SDS011;2015;48.670;9.060;2023-04-30T15:35:44;5.43;;;4.93;;
4001;SDS011;2015;48.670;9.060;2023-04-30T15:38:16;6.50;;;6.07;;
4001;SDS011;2015;48.670;9.060;2023-04-30T15:40:48;6.23;;;5.73;;
4001;SDS011;2015;48.670;9.060;2023-04-30T15:43:20;5.87;;;5.57;;
4001;SDS011;2015;48.670;9.060;2023-04-30T15:45:51;6.13;;;5.63;;
4001;SDS011;2015;48.670;9.060;2023-04-30T15:48:23;5.60;;;5.27;;
4001;SDS011;2015;48.670;9.060;2023-04-30T15:50:55;5.70;;;5.30;;
4001;SDS011;2015;48.670;9.060;2023-04-30T15:53:27;5.27;;;4.97;;
4001;SDS011;2015;48.670;9.060;2023-04-30T15:55:59;5.68;;;5.38;;
4001;SDS011;2015;48.670;9.060;2023-04-30T15:58:31;6.03;;;5.63;;
4001;SDS011;2015;48.670;9.060;2023-04-30T16:01:02;5.43;;;5.13;;
4001;SDS011;2015;48.670;9.060;2023-04-30T16:03:34;5.50;;;5.10;;